createdAt,value
2019-02-20T00:03:04.484Z,7.20
2019-02-20T00:08:09.625Z,7.20
2019-02-20T00:13:14.616Z,7.20
2019-02-20T00:18:19.769Z,7.20
2019-02-20T00:23:24.745Z,7.20
2019-02-20T00:28:29.537Z,7.20
2019-02-20T00:33:34.421Z,7.10
2019-02-20T00:38:39.346Z,7.10
2019-02-20T00:43:47.838Z,7.10
2019-02-20T00:49:12.337Z,7.10
2019-02-20T00:54:17.414Z,7.10
2019-02-20T00:59:22.373Z,7.10
2019-02-20T01:04:27.852Z,7.00
2019-02-20T01:09:32.744Z,7.00
2019-02-20T01:14:38.235Z,6.90
2019-02-20T01:19:43.111Z,6.80
2019-02-20T01:24:47.975Z,6.90
2019-02-20T01:29:52.937Z,6.80
2019-02-20T01:34:58.398Z,6.90
2019-02-20T01:40:03.564Z,6.80
2019-02-20T01:45:08.601Z,6.80
2019-02-20T01:50:13.493Z,6.70
2019-02-20T01:55:18.394Z,6.70
2019-02-20T02:00:23.393Z,6.60
2019-02-20T02:05:28.546Z,6.70
2019-02-20T02:10:33.602Z,6.60
2019-02-20T02:15:38.462Z,6.60
2019-02-20T02:20:43.276Z,6.70
2019-02-20T02:25:48.568Z,6.60
2019-02-20T02:30:53.446Z,6.60
2019-02-20T02:35:58.601Z,6.60
2019-02-20T02:41:03.851Z,6.60
2019-02-20T02:46:09.020Z,6.60
2019-02-20T02:51:13.897Z,6.60
2019-02-20T02:56:18.806Z,6.50
2019-02-20T03:01:23.961Z,6.50
2019-02-20T03:06:28.845Z,6.50
2019-02-20T03:11:33.974Z,6.50
2019-02-20T03:16:39.221Z,6.60
2019-02-20T03:21:44.080Z,6.60
2019-02-20T03:26:49.141Z,6.60
2019-02-20T03:31:53.993Z,6.50
2019-02-20T03:36:59.081Z,6.60
2019-02-20T03:42:03.941Z,6.60
2019-02-20T03:47:09.035Z,6.60
2019-02-20T03:52:13.990Z,6.60
2019-02-20T03:57:19.001Z,6.60
2019-02-20T04:02:23.949Z,6.60
2019-02-20T04:07:28.961Z,6.60
2019-02-20T04:12:33.928Z,6.60
2019-02-20T04:17:39.038Z,6.50
2019-02-20T04:22:44.077Z,6.60
2019-02-20T04:27:48.933Z,6.50
2019-02-20T04:32:54.269Z,6.60
2019-02-20T04:37:59.159Z,6.60
2019-02-20T04:43:04.372Z,6.60
2019-02-20T04:48:09.179Z,6.60
2019-02-20T04:53:14.914Z,6.70
2019-02-20T04:58:21.214Z,6.70
2019-02-20T05:03:26.538Z,6.70
2019-02-20T05:08:32.284Z,6.70
2019-02-20T05:13:37.495Z,6.70
2019-02-20T05:18:42.449Z,6.70
2019-02-20T05:23:47.426Z,6.80
2019-02-20T05:28:52.319Z,6.80
2019-02-20T05:33:57.469Z,6.80
2019-02-20T05:39:02.297Z,6.70
2019-02-20T05:44:07.090Z,6.80
2019-02-20T05:49:12.220Z,6.80
2019-02-20T05:54:17.098Z,6.80
2019-02-20T05:59:22.026Z,6.70
2019-02-20T06:04:27.117Z,6.80
2019-02-20T06:09:32.013Z,6.80
2019-02-20T06:14:37.549Z,6.70
2019-02-20T06:19:42.441Z,6.70
2019-02-20T06:24:47.316Z,6.80
2019-02-20T06:29:52.472Z,6.70
2019-02-20T06:34:57.350Z,6.70
2019-02-20T06:40:02.386Z,6.60
2019-02-20T06:45:08.821Z,6.60
2019-02-20T06:50:13.944Z,6.70
2019-02-20T06:55:18.840Z,6.60
2019-02-20T07:00:24.037Z,6.60
2019-02-20T07:05:33.992Z,6.60
2019-02-20T07:11:18.482Z,6.60
2019-02-20T07:16:59.249Z,6.60
2019-02-20T07:22:53.112Z,6.50
2019-02-20T07:28:30.669Z,6.60
2019-02-20T07:33:35.844Z,6.60
2019-02-20T07:38:40.808Z,6.60
2019-02-20T07:43:46.085Z,6.60
2019-02-20T07:48:51.060Z,6.70
2019-02-20T07:53:56.216Z,6.70
2019-02-20T07:59:01.273Z,6.70
2019-02-20T08:04:06.276Z,6.80
2019-02-20T08:09:11.169Z,6.70
2019-02-20T08:14:16.325Z,6.90
2019-02-20T08:19:21.964Z,7.00
2019-02-20T08:24:27.169Z,7.10
2019-02-20T08:29:32.408Z,7.20
2019-02-20T08:34:37.893Z,7.30
2019-02-20T08:39:44.800Z,7.30
2019-02-20T08:44:49.617Z,7.40
2019-02-20T08:49:55.041Z,7.40
2019-02-20T08:55:00.390Z,7.50
2019-02-20T09:00:06.877Z,7.70
2019-02-20T09:05:11.775Z,7.70
2019-02-20T09:10:17.483Z,7.90
2019-02-20T09:15:22.886Z,8.00
2019-02-20T09:20:27.961Z,8.10
2019-02-20T09:25:41.398Z,8.20
2019-02-20T09:30:39.921Z,8.30
2019-02-20T09:35:44.805Z,8.40
2019-02-20T09:40:49.686Z,8.70
2019-02-20T09:45:54.562Z,8.70
2019-02-20T09:51:00.049Z,8.60
2019-02-20T09:56:05.249Z,8.60
2019-02-20T10:01:10.238Z,8.90
2019-02-20T10:06:15.487Z,9.10
2019-02-20T10:11:20.211Z,9.10
2019-02-20T10:16:26.125Z,9.10
2019-02-20T10:21:31.025Z,9.60
2019-02-20T10:26:36.106Z,9.70
2019-02-20T10:31:41.004Z,10.10
2019-02-20T10:36:45.894Z,10.10
2019-02-20T10:41:50.748Z,10.20
2019-02-20T10:46:55.820Z,10.20
2019-02-20T10:52:01.001Z,9.90
2019-02-20T10:57:05.914Z,10.30
2019-02-20T11:02:11.287Z,10.30
2019-02-20T11:07:16.201Z,10.50
2019-02-20T11:12:21.461Z,10.20
2019-02-20T11:17:27.578Z,10.30
2019-02-20T11:22:32.395Z,10.60
2019-02-20T11:27:37.306Z,10.50
2019-02-20T11:32:42.649Z,11.30
2019-02-20T11:37:47.630Z,12.80
2019-02-20T11:42:53.169Z,11.90
2019-02-20T11:47:59.022Z,11.60
2019-02-20T11:53:04.229Z,10.60
2019-02-20T11:58:09.125Z,10.40
2019-02-20T12:03:14.385Z,11.40
2019-02-20T12:08:19.519Z,11.60
2019-02-20T12:13:24.749Z,12.10
2019-02-20T12:18:29.801Z,11.50
2019-02-20T12:23:36.679Z,11.60
2019-02-20T12:28:41.529Z,11.50
2019-02-20T12:33:46.693Z,11.20
2019-02-20T12:38:52.030Z,11.20
2019-02-20T12:43:56.992Z,11.70
2019-02-20T12:49:01.885Z,12.10
2019-02-20T12:54:07.055Z,11.60
2019-02-20T12:59:11.943Z,11.10
2019-02-20T13:04:17.192Z,11.20
2019-02-20T13:09:22.615Z,10.90
2019-02-20T13:14:27.550Z,11.10
2019-02-20T13:19:32.401Z,11.50
2019-02-20T13:24:38.056Z,11.70
2019-02-20T13:29:43.257Z,11.30
2019-02-20T13:34:48.357Z,11.40
2019-02-20T13:39:53.629Z,12.00
2019-02-20T13:44:58.793Z,11.90
2019-02-20T13:50:03.876Z,11.70
2019-02-20T13:55:08.845Z,11.70
2019-02-20T14:00:13.985Z,11.70
2019-02-20T14:05:18.987Z,11.60
2019-02-20T14:10:23.963Z,11.90
2019-02-20T14:15:29.226Z,12.10
2019-02-20T14:20:34.217Z,11.70
2019-02-20T14:25:39.841Z,11.80
2019-02-20T14:30:45.324Z,11.80
2019-02-20T14:35:52.096Z,11.80
2019-02-20T14:40:57.622Z,12.00
2019-02-20T14:46:02.938Z,11.90
2019-02-20T14:51:07.983Z,11.90
2019-02-20T14:56:12.932Z,12.40
2019-02-20T15:01:17.929Z,12.10
2019-02-20T15:06:23.160Z,12.10
2019-02-20T15:11:28.074Z,12.00
2019-02-20T15:16:33.289Z,12.30
2019-02-20T15:21:38.289Z,12.10
2019-02-20T15:26:43.524Z,12.00
2019-02-20T15:31:48.707Z,11.80
2019-02-20T15:36:53.922Z,11.70
2019-02-20T15:41:59.028Z,11.60
2019-02-20T15:47:04.904Z,11.60
2019-02-20T15:52:10.266Z,11.50
2019-02-20T15:57:15.640Z,11.50
2019-02-20T16:02:20.665Z,11.40
2019-02-20T16:07:25.999Z,11.40
2019-02-20T16:12:31.613Z,11.40
2019-02-20T16:17:37.064Z,11.40
2019-02-20T16:22:42.115Z,11.30
2019-02-20T16:27:47.832Z,11.40
2019-02-20T16:32:53.253Z,11.40
2019-02-20T16:37:58.306Z,11.30
2019-02-20T16:43:03.897Z,11.20
2019-02-20T16:48:09.277Z,11.20
2019-02-20T16:53:14.562Z,11.10
2019-02-20T16:58:19.576Z,11.00
2019-02-20T17:03:24.905Z,11.00
2019-02-20T17:08:30.077Z,11.00
2019-02-20T17:13:35.796Z,10.80
2019-02-20T17:18:41.390Z,10.70
2019-02-20T17:23:46.417Z,10.90
2019-02-20T17:28:51.390Z,10.80
2019-02-20T17:33:56.645Z,10.70
2019-02-20T17:39:01.869Z,10.70
2019-02-20T17:44:06.843Z,10.60
2019-02-20T17:49:12.794Z,10.50
2019-02-20T17:54:17.728Z,10.50
2019-02-20T17:59:22.868Z,10.60
2019-02-20T18:04:28.050Z,10.70
2019-02-20T18:09:33.056Z,10.30
2019-02-20T18:14:38.254Z,10.40
2019-02-20T18:19:43.250Z,10.60
2019-02-20T18:24:48.629Z,10.20
2019-02-20T18:29:53.819Z,10.20
2019-02-20T18:34:59.053Z,10.10
2019-02-20T18:40:04.623Z,10.00
2019-02-20T18:45:10.700Z,10.00
2019-02-20T18:50:15.734Z,10.30
2019-02-20T18:55:21.206Z,10.20
2019-02-20T19:00:26.286Z,10.00
2019-02-20T19:05:33.643Z,9.90
2019-02-20T19:10:38.590Z,10.10
2019-02-20T19:15:57.888Z,10.10
2019-02-20T19:21:33.854Z,9.80
2019-02-20T19:27:15.670Z,9.70
2019-02-20T19:32:43.267Z,9.80
2019-02-20T19:38:12.080Z,9.90
2019-02-20T19:44:12.978Z,9.80
2019-02-20T19:50:04.834Z,9.70
2019-02-20T19:55:43.448Z,9.10
2019-02-20T20:01:24.854Z,9.20
2019-02-20T20:06:44.110Z,9.00
2019-02-20T20:12:26.194Z,8.90
2019-02-20T20:18:28.131Z,8.90
2019-02-20T20:24:05.985Z,8.90
2019-02-20T20:29:54.012Z,8.80
2019-02-20T20:35:40.713Z,8.70
2019-02-20T20:41:30.058Z,8.70
2019-02-20T20:46:59.163Z,8.60
2019-02-20T20:53:02.929Z,8.60
2019-02-20T20:58:37.537Z,8.50
2019-02-20T21:03:55.552Z,8.50
2019-02-20T21:09:19.094Z,8.30
2019-02-20T21:15:02.547Z,8.50
2019-02-20T21:20:39.589Z,8.40
2019-02-20T21:26:43.788Z,8.30
2019-02-20T21:32:11.653Z,8.30
2019-02-20T21:38:16.028Z,8.30
2019-02-20T21:44:11.369Z,8.20
2019-02-20T21:50:09.349Z,8.20
2019-02-20T21:55:37.145Z,8.10
2019-02-20T22:01:15.277Z,8.10
2019-02-20T22:06:33.851Z,8.00
2019-02-20T22:12:02.812Z,8.10
2019-02-20T22:17:59.397Z,8.10
2019-02-20T22:23:30.474Z,8.10
2019-02-20T22:29:19.435Z,8.00
2019-02-20T22:34:45.129Z,8.00
2019-02-20T22:40:21.448Z,8.00
2019-02-20T22:46:18.900Z,7.80
2019-02-20T22:52:07.445Z,7.90
2019-02-20T22:58:01.784Z,8.00
2019-02-20T23:03:30.904Z,7.90
2019-02-20T23:08:58.530Z,7.90
2019-02-20T23:14:35.021Z,8.00
2019-02-20T23:19:40.429Z,8.00
2019-02-20T23:24:45.645Z,7.90
2019-02-20T23:29:50.721Z,7.90
2019-02-20T23:34:55.734Z,7.90
2019-02-20T23:40:01.159Z,7.90
2019-02-20T23:45:06.331Z,7.90
2019-02-20T23:50:11.211Z,8.00
2019-02-20T23:55:16.419Z,8.00
